sensor_id;sensor_type;location;lat;lon;timestamp;P1;durP1;ratioP1;P2;durP2;ratioP2
47922;SDS011;33688;44.354;9.228;2023-08-17T00:00:44;1.38;;;1.20;;
47922;SDS011;33688;44.354;9.228;2023-08-17T00:03:09;1.20;;;1.13;;
47922;SDS011;33688;44.354;9.228;2023-08-17T00:05:36;1.52;;;1.42;;
47922;SDS011;33688;44.354;9.228;2023-08-17T00:08:02;1.02;;;1.02;;
47922;SDS011;33688;44.354;9.228;2023-08-17T00:10:29;1.13;;;1.13;;
47922;SDS011;33688;44.354;9.228;2023-08-17T00:12:55;1.17;;;1.10;;
47922;SDS011;33688;44.354;9.228;2023-08-17T00:15:20;1.13;;;1.10;;
47922;SDS011;33688;44.354;9.228;2023-08-17T00:17:46;0.90;;;0.90;;
47922;SDS011;33688;44.354;9.228;2023-08-17T00:20:12;1.20;;;1.10;;
47922;SDS011;33688;44.354;9.228;2023-08-17T00:22:38;1.27;;;1.20;;
47922;SDS011;33688;44.354;9.228;2023-08-17T00:25:05;1.20;;;1.10;;
47922;SDS011;33688;44.354;9.228;2023-08-17T00:27:32;1.02;;;1.02;;
47922;SDS011;33688;44.354;9.228;2023-08-17T00:29:58;1.08;;;1.08;;
47922;SDS011;33688;44.354;9.228;2023-08-17T00:32:24;1.02;;;1.02;;
47922;SDS011;33688;44.354;9.228;2023-08-17T00:34:50;0.80;;;0.80;;
47922;SDS011;33688;44.354;9.228;2023-08-17T00:37:17;1.00;;;1.00;;
47922;SDS011;33688;44.354;9.228;2023-08-17T00:39:43;1.10;;;1.00;;
47922;SDS011;33688;44.354;9.228;2023-08-17T00:42:08;1.27;;;1.17;;
47922;SDS011;33688;44.354;9.228;2023-08-17T00:44:35;1.00;;;1.00;;
47922;SDS011;33688;44.354;9.228;2023-08-17T00:47:02;0.80;;;0.80;;
47922;SDS011;33688;44.354;9.228;2023-08-17T00:49:29;1.00;;;1.00;;
47922;SDS011;33688;44.354;9.228;2023-08-17T00:51:56;1.10;;;1.00;;
47922;SDS011;33688;44.354;9.228;2023-08-17T00:54:24;1.35;;;1.30;;
47922;SDS011;33688;44.354;9.228;2023-08-17T00:56:52;1.08;;;0.98;;
47922;SDS011;33688;44.354;9.228;2023-08-17T00:59:20;1.27;;;1.20;;
47922;SDS011;33688;44.354;9.228;2023-08-17T01:01:47;1.20;;;1.10;;
47922;SDS011;33688;44.354;9.228;2023-08-17T01:06:43;1.25;;;1.15;;
47922;SDS011;33688;44.354;9.228;2023-08-17T01:09:08;0.93;;;0.93;;
47922;SDS011;33688;44.354;9.228;2023-08-17T01:11:36;1.40;;;1.30;;
47922;SDS011;33688;44.354;9.228;2023-08-17T01:17:06;0.80;;;0.80;;
47922;SDS011;33688;44.354;9.228;2023-08-17T01:19:36;0.90;;;0.90;;
47922;SDS011;33688;44.354;9.228;2023-08-17T01:22:03;1.13;;;1.02;;
47922;SDS011;33688;44.354;9.228;2023-08-17T01:24:31;1.30;;;1.20;;
47922;SDS011;33688;44.354;9.228;2023-08-17T01:26:57;1.40;;;1.30;;
47922;SDS011;33688;44.354;9.228;2023-08-17T01:29:23;1.33;;;1.10;;
47922;SDS011;33688;44.354;9.228;2023-08-17T01:35:01;0.95;;;0.95;;
47922;SDS011;33688;44.354;9.228;2023-08-17T01:37:39;0.90;;;0.90;;
47922;SDS011;33688;44.354;9.228;2023-08-17T01:40:07;1.27;;;1.17;;
47922;SDS011;33688;44.354;9.228;2023-08-17T01:42:36;1.23;;;1.13;;
47922;SDS011;33688;44.354;9.228;2023-08-17T01:47:56;0.90;;;0.90;;
47922;SDS011;33688;44.354;9.228;2023-08-17T01:50:23;1.00;;;1.00;;
47922;SDS011;33688;44.354;9.228;2023-08-17T01:52:49;1.30;;;1.20;;
47922;SDS011;33688;44.354;9.228;2023-08-17T01:55:16;1.50;;;1.40;;
47922;SDS011;33688;44.354;9.228;2023-08-17T01:57:42;1.25;;;1.17;;
47922;SDS011;33688;44.354;9.228;2023-08-17T02:00:08;1.20;;;1.10;;
47922;SDS011;33688;44.354;9.228;2023-08-17T02:02:40;1.33;;;1.23;;
47922;SDS011;33688;44.354;9.228;2023-08-17T02:05:06;1.08;;;0.98;;
47922;SDS011;33688;44.354;9.228;2023-08-17T02:07:32;1.40;;;1.30;;
47922;SDS011;33688;44.354;9.228;2023-08-17T02:09:58;0.98;;;0.98;;
47922;SDS011;33688;44.354;9.228;2023-08-17T02:12:25;1.13;;;1.10;;
47922;SDS011;33688;44.354;9.228;2023-08-17T02:14:51;1.30;;;1.20;;
47922;SDS011;33688;44.354;9.228;2023-08-17T02:17:17;1.10;;;1.00;;
47922;SDS011;33688;44.354;9.228;2023-08-17T02:19:44;1.00;;;1.00;;
47922;SDS011;33688;44.354;9.228;2023-08-17T02:22:10;1.25;;;1.20;;
47922;SDS011;33688;44.354;9.228;2023-08-17T02:24:36;0.80;;;0.80;;
47922;SDS011;33688;44.354;9.228;2023-08-17T02:27:02;0.75;;;0.75;;
47922;SDS011;33688;44.354;9.228;2023-08-17T02:29:30;1.10;;;1.00;;
47922;SDS011;33688;44.354;9.228;2023-08-17T02:31:55;1.13;;;1.00;;
47922;SDS011;33688;44.354;9.228;2023-08-17T02:40:08;1.20;;;1.10;;
47922;SDS011;33688;44.354;9.228;2023-08-17T02:42:34;1.05;;;0.95;;
47922;SDS011;33688;44.354;9.228;2023-08-17T02:44:59;0.80;;;0.80;;
47922;SDS011;33688;44.354;9.228;2023-08-17T02:47:25;0.95;;;0.95;;
47922;SDS011;33688;44.354;9.228;2023-08-17T02:49:51;0.90;;;0.90;;
47922;SDS011;33688;44.354;9.228;2023-08-17T02:52:18;0.73;;;0.73;;
47922;SDS011;33688;44.354;9.228;2023-08-17T02:54:44;1.00;;;0.93;;
47922;SDS011;33688;44.354;9.228;2023-08-17T02:57:09;1.20;;;1.05;;
47922;SDS011;33688;44.354;9.228;2023-08-17T02:59:35;1.30;;;1.20;;
47922;SDS011;33688;44.354;9.228;2023-08-17T03:02:00;0.77;;;0.77;;
47922;SDS011;33688;44.354;9.228;2023-08-17T03:04:26;1.20;;;1.10;;
47922;SDS011;33688;44.354;9.228;2023-08-17T03:06:51;1.30;;;0.98;;
47922;SDS011;33688;44.354;9.228;2023-08-17T03:09:17;1.10;;;1.10;;
47922;SDS011;33688;44.354;9.228;2023-08-17T03:11:44;1.33;;;1.23;;
47922;SDS011;33688;44.354;9.228;2023-08-17T03:16:53;1.17;;;1.17;;
47922;SDS011;33688;44.354;9.228;2023-08-17T03:19:19;0.85;;;0.85;;
47922;SDS011;33688;44.354;9.228;2023-08-17T03:21:45;1.30;;;1.20;;
47922;SDS011;33688;44.354;9.228;2023-08-17T03:24:11;0.90;;;0.90;;
47922;SDS011;33688;44.354;9.228;2023-08-17T03:26:37;0.80;;;0.80;;
47922;SDS011;33688;44.354;9.228;2023-08-17T03:29:03;1.10;;;1.10;;
47922;SDS011;33688;44.354;9.228;2023-08-17T03:31:30;1.00;;;1.00;;
47922;SDS011;33688;44.354;9.228;2023-08-17T03:33:56;1.17;;;1.13;;
47922;SDS011;33688;44.354;9.228;2023-08-17T03:36:22;1.05;;;1.05;;
47922;SDS011;33688;44.354;9.228;2023-08-17T03:38:48;0.90;;;0.90;;
47922;SDS011;33688;44.354;9.228;2023-08-17T03:41:14;1.05;;;0.95;;
47922;SDS011;33688;44.354;9.228;2023-08-17T03:43:41;0.90;;;0.90;;
47922;SDS011;33688;44.354;9.228;2023-08-17T03:46:06;1.27;;;1.17;;
47922;SDS011;33688;44.354;9.228;2023-08-17T03:48:33;1.00;;;1.00;;
47922;SDS011;33688;44.354;9.228;2023-08-17T03:51:00;1.00;;;1.00;;
47922;SDS011;33688;44.354;9.228;2023-08-17T03:53:28;1.70;;;0.90;;
47922;SDS011;33688;44.354;9.228;2023-08-17T03:55:54;1.00;;;1.00;;
47922;SDS011;33688;44.354;9.228;2023-08-17T03:58:21;1.02;;;0.98;;
47922;SDS011;33688;44.354;9.228;2023-08-17T04:00:50;0.68;;;0.68;;
47922;SDS011;33688;44.354;9.228;2023-08-17T04:03:19;1.02;;;1.02;;
47922;SDS011;33688;44.354;9.228;2023-08-17T04:05:45;1.30;;;1.20;;
47922;SDS011;33688;44.354;9.228;2023-08-17T04:08:13;1.20;;;1.10;;
47922;SDS011;33688;44.354;9.228;2023-08-17T04:10:39;0.93;;;0.93;;
47922;SDS011;33688;44.354;9.228;2023-08-17T04:13:05;1.02;;;1.02;;
47922;SDS011;33688;44.354;9.228;2023-08-17T04:15:32;0.80;;;0.80;;
47922;SDS011;33688;44.354;9.228;2023-08-17T04:17:59;0.60;;;0.60;;
47922;SDS011;33688;44.354;9.228;2023-08-17T04:20:27;0.93;;;0.93;;
47922;SDS011;33688;44.354;9.228;2023-08-17T04:22:52;0.85;;;0.85;;
47922;SDS011;33688;44.354;9.228;2023-08-17T04:25:18;0.90;;;0.90;;
47922;SDS011;33688;44.354;9.228;2023-08-17T04:27:44;0.95;;;0.95;;
47922;SDS011;33688;44.354;9.228;2023-08-17T04:30:10;1.15;;;1.10;;
47922;SDS011;33688;44.354;9.228;2023-08-17T04:32:47;0.93;;;0.93;;
47922;SDS011;33688;44.354;9.228;2023-08-17T04:35:18;0.73;;;0.73;;
47922;SDS011;33688;44.354;9.228;2023-08-17T04:40:14;0.88;;;0.88;;
47922;SDS011;33688;44.354;9.228;2023-08-17T04:42:43;0.80;;;0.80;;
47922;SDS011;33688;44.354;9.228;2023-08-17T04:45:09;1.05;;;0.95;;
47922;SDS011;33688;44.354;9.228;2023-08-17T04:50:09;0.80;;;0.80;;
47922;SDS011;33688;44.354;9.228;2023-08-17T04:52:34;1.00;;;1.00;;
47922;SDS011;33688;44.354;9.228;2023-08-17T04:55:01;1.10;;;1.10;;
47922;SDS011;33688;44.354;9.228;2023-08-17T04:57:28;0.93;;;0.93;;
47922;SDS011;33688;44.354;9.228;2023-08-17T04:59:54;0.95;;;0.95;;
47922;SDS011;33688;44.354;9.228;2023-08-17T05:02:20;0.95;;;0.95;;
47922;SDS011;33688;44.354;9.228;2023-08-17T05:04:46;0.93;;;0.93;;
47922;SDS011;33688;44.354;9.228;2023-08-17T05:07:12;1.10;;;1.10;;
47922;SDS011;33688;44.354;9.228;2023-08-17T05:09:37;0.93;;;0.93;;
47922;SDS011;33688;44.354;9.228;2023-08-17T05:12:03;0.70;;;0.70;;
47922;SDS011;33688;44.354;9.228;2023-08-17T05:14:29;0.85;;;0.85;;
47922;SDS011;33688;44.354;9.228;2023-08-17T05:16:54;0.90;;;0.90;;
47922;SDS011;33688;44.354;9.228;2023-08-17T05:19:21;0.90;;;0.90;;
47922;SDS011;33688;44.354;9.228;2023-08-17T05:21:47;1.00;;;1.00;;
47922;SDS011;33688;44.354;9.228;2023-08-17T05:24:15;1.25;;;1.15;;
47922;SDS011;33688;44.354;9.228;2023-08-17T05:26:41;0.98;;;0.90;;
47922;SDS011;33688;44.354;9.228;2023-08-17T05:29:06;0.80;;;0.80;;
47922;SDS011;33688;44.354;9.228;2023-08-17T05:34:17;1.33;;;1.23;;
47922;SDS011;33688;44.354;9.228;2023-08-17T05:36:43;0.98;;;0.98;;
47922;SDS011;33688;44.354;9.228;2023-08-17T05:39:09;1.15;;;1.10;;
47922;SDS011;33688;44.354;9.228;2023-08-17T05:41:35;0.80;;;0.80;;
47922;SDS011;33688;44.354;9.228;2023-08-17T05:44:02;1.80;;;1.17;;
47922;SDS011;33688;44.354;9.228;2023-08-17T05:46:27;0.90;;;0.90;;
47922;SDS011;33688;44.354;9.228;2023-08-17T05:48:53;1.08;;;1.00;;
47922;SDS011;33688;44.354;9.228;2023-08-17T05:51:20;0.98;;;0.98;;
47922;SDS011;33688;44.354;9.228;2023-08-17T05:53:46;1.00;;;1.00;;
47922;SDS011;33688;44.354;9.228;2023-08-17T05:56:12;0.80;;;0.80;;
47922;SDS011;33688;44.354;9.228;2023-08-17T05:58:37;0.93;;;0.93;;
47922;SDS011;33688;44.354;9.228;2023-08-17T06:01:09;1.35;;;0.98;;
47922;SDS011;33688;44.354;9.228;2023-08-17T06:03:35;0.90;;;0.90;;
47922;SDS011;33688;44.354;9.228;2023-08-17T06:06:02;0.70;;;0.70;;
47922;SDS011;33688;44.354;9.228;2023-08-17T06:08:28;0.85;;;0.85;;
47922;SDS011;33688;44.354;9.228;2023-08-17T06:10:54;0.98;;;0.98;;
47922;SDS011;33688;44.354;9.228;2023-08-17T06:13:20;0.80;;;0.80;;
47922;SDS011;33688;44.354;9.228;2023-08-17T06:15:46;1.10;;;1.10;;
47922;SDS011;33688;44.354;9.228;2023-08-17T06:18:11;1.13;;;1.05;;
47922;SDS011;33688;44.354;9.228;2023-08-17T06:20:39;0.93;;;0.93;;
47922;SDS011;33688;44.354;9.228;2023-08-17T06:23:05;0.98;;;0.98;;
47922;SDS011;33688;44.354;9.228;2023-08-17T06:25:30;1.23;;;1.13;;
47922;SDS011;33688;44.354;9.228;2023-08-17T06:27:58;0.73;;;0.73;;
47922;SDS011;33688;44.354;9.228;2023-08-17T06:30:24;1.10;;;1.00;;
47922;SDS011;33688;44.354;9.228;2023-08-17T06:32:50;0.90;;;0.90;;
47922;SDS011;33688;44.354;9.228;2023-08-17T06:35:16;0.90;;;0.90;;
47922;SDS011;33688;44.354;9.228;2023-08-17T06:37:42;0.73;;;0.73;;
47922;SDS011;33688;44.354;9.228;2023-08-17T06:40:08;0.80;;;0.80;;
47922;SDS011;33688;44.354;9.228;2023-08-17T06:42:36;0.90;;;0.90;;
47922;SDS011;33688;44.354;9.228;2023-08-17T06:45:04;0.93;;;0.82;;
47922;SDS011;33688;44.354;9.228;2023-08-17T06:47:30;1.05;;;1.02;;
47922;SDS011;33688;44.354;9.228;2023-08-17T06:49:56;1.30;;;1.17;;
47922;SDS011;33688;44.354;9.228;2023-08-17T06:52:23;1.42;;;1.15;;
47922;SDS011;33688;44.354;9.228;2023-08-17T06:54:49;1.08;;;0.80;;
47922;SDS011;33688;44.354;9.228;2023-08-17T06:57:15;1.13;;;1.02;;
47922;SDS011;33688;44.354;9.228;2023-08-17T06:59:41;1.20;;;1.10;;
47922;SDS011;33688;44.354;9.228;2023-08-17T07:02:07;1.25;;;1.15;;
47922;SDS011;33688;44.354;9.228;2023-08-17T07:04:32;1.20;;;1.10;;
47922;SDS011;33688;44.354;9.228;2023-08-17T07:06:58;1.30;;;1.20;;
47922;SDS011;33688;44.354;9.228;2023-08-17T07:09:23;1.05;;;1.02;;
47922;SDS011;33688;44.354;9.228;2023-08-17T07:11:50;1.10;;;1.00;;
47922;SDS011;33688;44.354;9.228;2023-08-17T07:14:15;0.90;;;0.90;;
47922;SDS011;33688;44.354;9.228;2023-08-17T07:16:41;0.90;;;0.90;;
47922;SDS011;33688;44.354;9.228;2023-08-17T07:19:06;1.60;;;1.10;;
47922;SDS011;33688;44.354;9.228;2023-08-17T07:21:32;1.63;;;1.33;;
47922;SDS011;33688;44.354;9.228;2023-08-17T07:23:57;1.25;;;1.15;;
47922;SDS011;33688;44.354;9.228;2023-08-17T07:26:23;2.22;;;1.17;;
47922;SDS011;33688;44.354;9.228;2023-08-17T07:28:51;1.42;;;1.30;;
47922;SDS011;33688;44.354;9.228;2023-08-17T07:31:16;0.95;;;0.95;;
47922;SDS011;33688;44.354;9.228;2023-08-17T07:33:42;2.67;;;1.30;;
47922;SDS011;33688;44.354;9.228;2023-08-17T07:36:08;1.45;;;1.20;;
47922;SDS011;33688;44.354;9.228;2023-08-17T07:38:34;1.27;;;1.23;;
47922;SDS011;33688;44.354;9.228;2023-08-17T07:40:59;1.33;;;1.23;;
47922;SDS011;33688;44.354;9.228;2023-08-17T07:43:25;1.33;;;1.23;;
47922;SDS011;33688;44.354;9.228;2023-08-17T07:45:54;1.30;;;1.15;;
47922;SDS011;33688;44.354;9.228;2023-08-17T07:48:23;1.08;;;1.08;;
47922;SDS011;33688;44.354;9.228;2023-08-17T07:50:52;1.85;;;1.45;;
47922;SDS011;33688;44.354;9.228;2023-08-17T07:53:18;1.55;;;1.30;;
47922;SDS011;33688;44.354;9.228;2023-08-17T07:55:44;2.13;;;1.58;;
47922;SDS011;33688;44.354;9.228;2023-08-17T07:58:10;1.60;;;1.50;;
47922;SDS011;33688;44.354;9.228;2023-08-17T08:00:36;2.15;;;1.33;;
47922;SDS011;33688;44.354;9.228;2023-08-17T08:03:03;1.73;;;1.33;;
47922;SDS011;33688;44.354;9.228;2023-08-17T08:05:29;1.42;;;1.33;;
47922;SDS011;33688;44.354;9.228;2023-08-17T08:07:54;1.60;;;1.50;;
47922;SDS011;33688;44.354;9.228;2023-08-17T08:10:22;1.20;;;1.10;;
47922;SDS011;33688;44.354;9.228;2023-08-17T08:12:50;1.10;;;1.10;;
47922;SDS011;33688;44.354;9.228;2023-08-17T08:15:16;1.75;;;1.50;;
47922;SDS011;33688;44.354;9.228;2023-08-17T08:17:42;1.20;;;1.10;;
47922;SDS011;33688;44.354;9.228;2023-08-17T08:20:08;1.40;;;1.30;;
47922;SDS011;33688;44.354;9.228;2023-08-17T08:22:34;1.55;;;1.45;;
47922;SDS011;33688;44.354;9.228;2023-08-17T08:24:59;1.20;;;1.17;;
47922;SDS011;33688;44.354;9.228;2023-08-17T08:27:25;1.00;;;1.00;;
47922;SDS011;33688;44.354;9.228;2023-08-17T08:29:51;1.00;;;1.00;;
47922;SDS011;33688;44.354;9.228;2023-08-17T08:35:02;1.45;;;1.35;;
47922;SDS011;33688;44.354;9.228;2023-08-17T08:37:28;2.03;;;1.75;;
47922;SDS011;33688;44.354;9.228;2023-08-17T08:39:54;1.73;;;1.42;;
47922;SDS011;33688;44.354;9.228;2023-08-17T08:42:20;1.10;;;1.10;;
47922;SDS011;33688;44.354;9.228;2023-08-17T08:44:46;1.38;;;1.27;;
47922;SDS011;33688;44.354;9.228;2023-08-17T08:47:13;1.48;;;1.38;;
47922;SDS011;33688;44.354;9.228;2023-08-17T08:49:47;1.77;;;1.40;;
47922;SDS011;33688;44.354;9.228;2023-08-17T08:52:19;1.95;;;1.52;;
47922;SDS011;33688;44.354;9.228;2023-08-17T08:54:45;1.58;;;1.48;;
47922;SDS011;33688;44.354;9.228;2023-08-17T08:57:16;2.97;;;1.60;;
47922;SDS011;33688;44.354;9.228;2023-08-17T08:59:42;1.80;;;1.70;;
47922;SDS011;33688;44.354;9.228;2023-08-17T09:02:12;1.67;;;1.58;;
47922;SDS011;33688;44.354;9.228;2023-08-17T09:04:44;1.40;;;1.30;;
47922;SDS011;33688;44.354;9.228;2023-08-17T09:07:13;2.22;;;1.58;;
47922;SDS011;33688;44.354;9.228;2023-08-17T09:09:39;1.40;;;1.30;;
47922;SDS011;33688;44.354;9.228;2023-08-17T09:12:06;2.67;;;1.75;;
47922;SDS011;33688;44.354;9.228;2023-08-17T09:14:33;1.70;;;1.58;;
47922;SDS011;33688;44.354;9.228;2023-08-17T09:16:59;1.45;;;1.35;;
47922;SDS011;33688;44.354;9.228;2023-08-17T09:19:25;1.88;;;1.60;;
47922;SDS011;33688;44.354;9.228;2023-08-17T09:21:51;1.60;;;1.50;;
47922;SDS011;33688;44.354;9.228;2023-08-17T09:24:16;1.55;;;1.30;;
47922;SDS011;33688;44.354;9.228;2023-08-17T09:26:42;1.65;;;1.52;;
47922;SDS011;33688;44.354;9.228;2023-08-17T09:29:17;1.70;;;1.55;;
47922;SDS011;33688;44.354;9.228;2023-08-17T09:31:44;2.33;;;1.58;;
47922;SDS011;33688;44.354;9.228;2023-08-17T09:34:11;1.30;;;1.17;;
47922;SDS011;33688;44.354;9.228;2023-08-17T09:36:36;2.05;;;1.80;;
47922;SDS011;33688;44.354;9.228;2023-08-17T09:39:02;2.00;;;1.83;;
47922;SDS011;33688;44.354;9.228;2023-08-17T09:41:28;1.52;;;1.42;;
47922;SDS011;33688;44.354;9.228;2023-08-17T09:43:55;1.67;;;1.58;;
47922;SDS011;33688;44.354;9.228;2023-08-17T09:46:21;1.60;;;1.50;;
47922;SDS011;33688;44.354;9.228;2023-08-17T09:48:47;2.15;;;1.60;;
47922;SDS011;33688;44.354;9.228;2023-08-17T09:51:16;1.88;;;1.75;;
47922;SDS011;33688;44.354;9.228;2023-08-17T09:53:42;1.90;;;1.67;;
47922;SDS011;33688;44.354;9.228;2023-08-17T09:56:07;1.67;;;1.58;;
47922;SDS011;33688;44.354;9.228;2023-08-17T09:58:36;2.45;;;1.67;;
47922;SDS011;33688;44.354;9.228;2023-08-17T10:01:03;1.70;;;1.45;;
47922;SDS011;33688;44.354;9.228;2023-08-17T10:03:30;1.73;;;1.63;;
47922;SDS011;33688;44.354;9.228;2023-08-17T10:06:04;1.42;;;1.33;;
47922;SDS011;33688;44.354;9.228;2023-08-17T10:08:33;1.67;;;1.58;;
47922;SDS011;33688;44.354;9.228;2023-08-17T10:11:03;1.85;;;1.70;;
47922;SDS011;33688;44.354;9.228;2023-08-17T10:13:48;1.58;;;1.48;;
47922;SDS011;33688;44.354;9.228;2023-08-17T10:16:33;1.77;;;1.67;;
47922;SDS011;33688;44.354;9.228;2023-08-17T10:19:18;1.30;;;1.20;;
47922;SDS011;33688;44.354;9.228;2023-08-17T10:21:54;2.92;;;1.67;;
47922;SDS011;33688;44.354;9.228;2023-08-17T10:24:40;1.45;;;1.35;;
47922;SDS011;33688;44.354;9.228;2023-08-17T10:27:10;1.95;;;1.50;;
47922;SDS011;33688;44.354;9.228;2023-08-17T10:29:36;1.30;;;1.20;;
47922;SDS011;33688;44.354;9.228;2023-08-17T10:32:01;1.55;;;1.45;;
47922;SDS011;33688;44.354;9.228;2023-08-17T10:34:27;1.38;;;1.27;;
47922;SDS011;33688;44.354;9.228;2023-08-17T10:36:55;1.98;;;1.60;;
47922;SDS011;33688;44.354;9.228;2023-08-17T10:39:27;2.30;;;1.48;;
47922;SDS011;33688;44.354;9.228;2023-08-17T10:41:54;1.40;;;1.30;;
47922;SDS011;33688;44.354;9.228;2023-08-17T10:47:26;1.85;;;1.52;;
47922;SDS011;33688;44.354;9.228;2023-08-17T10:50:02;1.77;;;1.55;;
47922;SDS011;33688;44.354;9.228;2023-08-17T10:54:59;1.92;;;1.40;;
47922;SDS011;33688;44.354;9.228;2023-08-17T11:02:56;1.98;;;1.77;;
47922;SDS011;33688;44.354;9.228;2023-08-17T11:05:42;1.50;;;1.40;;
47922;SDS011;33688;44.354;9.228;2023-08-17T11:08:57;1.58;;;1.48;;
47922;SDS011;33688;44.354;9.228;2023-08-17T11:11:23;1.83;;;1.70;;
47922;SDS011;33688;44.354;9.228;2023-08-17T11:13:49;1.50;;;1.40;;
47922;SDS011;33688;44.354;9.228;2023-08-17T11:16:16;1.40;;;1.30;;
47922;SDS011;33688;44.354;9.228;2023-08-17T11:18:44;1.58;;;1.42;;
47922;SDS011;33688;44.354;9.228;2023-08-17T11:21:11;2.58;;;1.67;;
47922;SDS011;33688;44.354;9.228;2023-08-17T11:23:37;1.48;;;1.38;;
47922;SDS011;33688;44.354;9.228;2023-08-17T11:26:04;2.28;;;1.70;;
47922;SDS011;33688;44.354;9.228;2023-08-17T11:28:30;1.73;;;1.63;;
47922;SDS011;33688;44.354;9.228;2023-08-17T11:31:04;1.70;;;1.60;;
47922;SDS011;33688;44.354;9.228;2023-08-17T11:33:32;1.77;;;1.55;;
47922;SDS011;33688;44.354;9.228;2023-08-17T11:35:58;1.52;;;1.42;;
47922;SDS011;33688;44.354;9.228;2023-08-17T11:38:25;1.08;;;1.08;;
47922;SDS011;33688;44.354;9.228;2023-08-17T11:40:51;1.67;;;1.40;;
47922;SDS011;33688;44.354;9.228;2023-08-17T11:43:17;1.48;;;1.27;;
47922;SDS011;33688;44.354;9.228;2023-08-17T11:45:45;1.60;;;1.50;;
47922;SDS011;33688;44.354;9.228;2023-08-17T11:48:11;1.50;;;1.30;;
47922;SDS011;33688;44.354;9.228;2023-08-17T11:50:37;1.45;;;1.35;;
47922;SDS011;33688;44.354;9.228;2023-08-17T11:53:04;1.98;;;1.77;;
47922;SDS011;33688;44.354;9.228;2023-08-17T11:55:30;2.05;;;1.50;;
47922;SDS011;33688;44.354;9.228;2023-08-17T11:57:56;2.45;;;1.58;;
47922;SDS011;33688;44.354;9.228;2023-08-17T12:00:21;2.05;;;1.58;;
47922;SDS011;33688;44.354;9.228;2023-08-17T12:02:50;1.55;;;1.45;;
47922;SDS011;33688;44.354;9.228;2023-08-17T12:05:24;1.88;;;1.77;;
47922;SDS011;33688;44.354;9.228;2023-08-17T12:07:53;2.40;;;1.60;;
47922;SDS011;33688;44.354;9.228;2023-08-17T12:10:19;1.30;;;1.20;;
47922;SDS011;33688;44.354;9.228;2023-08-17T12:12:48;1.85;;;1.58;;
47922;SDS011;33688;44.354;9.228;2023-08-17T12:15:17;1.48;;;1.38;;
47922;SDS011;33688;44.354;9.228;2023-08-17T12:17:44;1.70;;;1.60;;
47922;SDS011;33688;44.354;9.228;2023-08-17T12:20:15;1.73;;;1.58;;
47922;SDS011;33688;44.354;9.228;2023-08-17T12:22:44;1.77;;;1.67;;
47922;SDS011;33688;44.354;9.228;2023-08-17T12:25:10;4.28;;;1.65;;
47922;SDS011;33688;44.354;9.228;2023-08-17T12:27:36;1.70;;;1.60;;
47922;SDS011;33688;44.354;9.228;2023-08-17T12:30:02;1.67;;;1.58;;
47922;SDS011;33688;44.354;9.228;2023-08-17T12:32:28;3.15;;;1.60;;
47922;SDS011;33688;44.354;9.228;2023-08-17T12:34:54;1.67;;;1.58;;
47922;SDS011;33688;44.354;9.228;2023-08-17T12:37:20;1.60;;;1.50;;
47922;SDS011;33688;44.354;9.228;2023-08-17T12:39:47;1.98;;;1.88;;
47922;SDS011;33688;44.354;9.228;2023-08-17T12:42:15;1.92;;;1.83;;
47922;SDS011;33688;44.354;9.228;2023-08-17T12:44:41;1.95;;;1.77;;
47922;SDS011;33688;44.354;9.228;2023-08-17T12:47:06;2.10;;;1.90;;
47922;SDS011;33688;44.354;9.228;2023-08-17T12:49:32;1.70;;;1.60;;
47922;SDS011;33688;44.354;9.228;2023-08-17T12:51:57;1.60;;;1.50;;
47922;SDS011;33688;44.354;9.228;2023-08-17T12:54:23;1.60;;;1.50;;
47922;SDS011;33688;44.354;9.228;2023-08-17T12:56:50;1.35;;;1.25;;
47922;SDS011;33688;44.354;9.228;2023-08-17T12:59:17;3.38;;;1.85;;
47922;SDS011;33688;44.354;9.228;2023-08-17T13:01:43;1.60;;;1.50;;
47922;SDS011;33688;44.354;9.228;2023-08-17T13:04:09;1.60;;;1.50;;
47922;SDS011;33688;44.354;9.228;2023-08-17T13:06:34;1.58;;;1.35;;
47922;SDS011;33688;44.354;9.228;2023-08-17T13:09:02;2.88;;;2.65;;
47922;SDS011;33688;44.354;9.228;2023-08-17T13:11:27;1.95;;;1.75;;
47922;SDS011;33688;44.354;9.228;2023-08-17T13:13:54;1.77;;;1.67;;
47922;SDS011;33688;44.354;9.228;2023-08-17T13:16:21;1.95;;;1.80;;
47922;SDS011;33688;44.354;9.228;2023-08-17T13:18:48;1.60;;;1.50;;
47922;SDS011;33688;44.354;9.228;2023-08-17T13:21:13;2.30;;;1.80;;
47922;SDS011;33688;44.354;9.228;2023-08-17T13:23:42;2.05;;;1.45;;
47922;SDS011;33688;44.354;9.228;2023-08-17T13:26:07;1.50;;;1.40;;
47922;SDS011;33688;44.354;9.228;2023-08-17T13:28:33;1.90;;;1.70;;
47922;SDS011;33688;44.354;9.228;2023-08-17T13:30:58;2.47;;;1.40;;
47922;SDS011;33688;44.354;9.228;2023-08-17T13:33:26;1.77;;;1.67;;
47922;SDS011;33688;44.354;9.228;2023-08-17T13:35:55;1.70;;;1.60;;
47922;SDS011;33688;44.354;9.228;2023-08-17T13:38:20;2.08;;;1.73;;
47922;SDS011;33688;44.354;9.228;2023-08-17T13:40:46;1.65;;;1.55;;
47922;SDS011;33688;44.354;9.228;2023-08-17T13:43:12;1.73;;;1.63;;
47922;SDS011;33688;44.354;9.228;2023-08-17T13:45:40;1.73;;;1.42;;
47922;SDS011;33688;44.354;9.228;2023-08-17T13:48:07;1.40;;;1.30;;
47922;SDS011;33688;44.354;9.228;2023-08-17T13:50:33;2.58;;;1.90;;
47922;SDS011;33688;44.354;9.228;2023-08-17T13:53:02;1.88;;;1.75;;
47922;SDS011;33688;44.354;9.228;2023-08-17T13:55:28;2.00;;;1.80;;
47922;SDS011;33688;44.354;9.228;2023-08-17T13:57:55;1.85;;;1.70;;
47922;SDS011;33688;44.354;9.228;2023-08-17T14:00:21;2.00;;;1.80;;
47922;SDS011;33688;44.354;9.228;2023-08-17T14:02:51;2.30;;;2.10;;
47922;SDS011;33688;44.354;9.228;2023-08-17T14:05:17;1.83;;;1.73;;
47922;SDS011;33688;44.354;9.228;2023-08-17T14:07:44;2.25;;;2.00;;
47922;SDS011;33688;44.354;9.228;2023-08-17T14:10:10;1.48;;;1.38;;
47922;SDS011;33688;44.354;9.228;2023-08-17T14:12:36;1.90;;;1.35;;
47922;SDS011;33688;44.354;9.228;2023-08-17T14:15:03;1.95;;;1.63;;
47922;SDS011;33688;44.354;9.228;2023-08-17T14:17:29;1.40;;;1.30;;
47922;SDS011;33688;44.354;9.228;2023-08-17T14:19:55;1.67;;;1.58;;
47922;SDS011;33688;44.354;9.228;2023-08-17T14:22:21;1.90;;;1.80;;
47922;SDS011;33688;44.354;9.228;2023-08-17T14:24:47;2.53;;;1.50;;
47922;SDS011;33688;44.354;9.228;2023-08-17T14:27:13;1.58;;;1.48;;
47922;SDS011;33688;44.354;9.228;2023-08-17T14:29:39;1.70;;;1.55;;
47922;SDS011;33688;44.354;9.228;2023-08-17T14:32:04;1.60;;;1.50;;
47922;SDS011;33688;44.354;9.228;2023-08-17T14:34:30;1.77;;;1.63;;
47922;SDS011;33688;44.354;9.228;2023-08-17T14:36:56;2.08;;;1.65;;
47922;SDS011;33688;44.354;9.228;2023-08-17T14:39:22;1.70;;;1.60;;
47922;SDS011;33688;44.354;9.228;2023-08-17T14:41:48;1.65;;;1.55;;
47922;SDS011;33688;44.354;9.228;2023-08-17T14:44:13;1.80;;;1.70;;
47922;SDS011;33688;44.354;9.228;2023-08-17T14:46:39;1.52;;;1.42;;
47922;SDS011;33688;44.354;9.228;2023-08-17T14:49:06;1.70;;;1.60;;
47922;SDS011;33688;44.354;9.228;2023-08-17T14:51:36;1.92;;;1.70;;
47922;SDS011;33688;44.354;9.228;2023-08-17T14:54:05;1.85;;;1.30;;
47922;SDS011;33688;44.354;9.228;2023-08-17T14:56:31;1.58;;;1.48;;
47922;SDS011;33688;44.354;9.228;2023-08-17T14:58:57;1.67;;;1.58;;
47922;SDS011;33688;44.354;9.228;2023-08-17T15:01:22;1.70;;;1.60;;
47922;SDS011;33688;44.354;9.228;2023-08-17T15:03:48;2.10;;;1.80;;
47922;SDS011;33688;44.354;9.228;2023-08-17T15:06:14;1.75;;;1.60;;
47922;SDS011;33688;44.354;9.228;2023-08-17T15:08:39;1.58;;;1.40;;
47922;SDS011;33688;44.354;9.228;2023-08-17T15:11:06;2.10;;;1.73;;
47922;SDS011;33688;44.354;9.228;2023-08-17T15:13:32;1.42;;;1.33;;
47922;SDS011;33688;44.354;9.228;2023-08-17T15:18:44;2.25;;;1.55;;
47922;SDS011;33688;44.354;9.228;2023-08-17T15:21:10;2.15;;;1.73;;
47922;SDS011;33688;44.354;9.228;2023-08-17T15:23:37;1.67;;;1.40;;
47922;SDS011;33688;44.354;9.228;2023-08-17T15:26:02;1.20;;;1.10;;
47922;SDS011;33688;44.354;9.228;2023-08-17T15:28:28;2.05;;;1.58;;
47922;SDS011;33688;44.354;9.228;2023-08-17T15:31:00;1.50;;;1.40;;